Time;durP1;ratioP1;P1;durP2;ratioP2;P2;SDS_P1;SDS_P2;PMS_P1;PMS_P2;Temp;Humidity;BMP_temperature;BMP_pressure;BME280_temperature;BME280_humidity;BME280_pressure;Samples;Min_cycle;Max_cycle;Signal;HPM_P1;HPM_P2
2022/02/11 00:08:00;;;;;;;8.90;5.43;;;7.40;99.90;;;;;;5117830;28;20387;-62
2022/02/11 00:10:27;;;;;;;11.33;5.77;;;7.50;99.90;;;;;;5117365;28;20028;-63
2022/02/11 00:12:54;;;;;;;12.00;5.38;;;7.40;99.90;;;;;;5117917;28;20423;-64
2022/02/11 00:15:37;;;;;;;12.07;5.60;;;7.40;99.90;;;;;;5117483;28;20027;-64
2022/02/11 00:18:04;;;;;;;10.02;5.15;;;7.40;99.90;;;;;;5117569;28;20330;-64
2022/02/11 00:20:29;;;;;;;9.60;5.38;;;7.30;99.90;;;;;;5117349;28;20100;-65
2022/02/11 00:22:55;;;;;;;10.27;5.00;;;7.30;99.90;;;;;;5117638;28;20051;-64
2022/02/11 00:25:21;;;;;;;11.13;5.07;;;7.20;99.90;;;;;;5117307;28;20412;-63
2022/02/11 00:32:55;;;;;;;10.10;4.57;;;7.10;99.90;;;;;;5119943;28;20114;-64
2022/02/11 00:35:31;;;;;;;10.50;5.20;;;7.10;99.90;;;;;;5119517;28;20479;-63
2022/02/11 00:37:58;;;;;;;8.57;4.70;;;7.20;99.90;;;;;;5117245;28;20031;-64
2022/02/11 00:43:56;;;;;;;10.77;5.63;;;7.30;99.90;;;;;;5117341;28;20113;-64
2022/02/11 01:02:18;;;;;;;7.95;4.40;;;7.30;99.90;;;;;;5116788;28;20051;-64
2022/02/11 01:04:44;;;;;;;8.88;5.22;;;7.30;99.90;;;;;;5116586;28;20465;-64
2022/02/11 01:07:10;;;;;;;7.70;4.60;;;7.30;99.90;;;;;;5098222;28;20031;-64
2022/02/11 01:09:37;;;;;;;7.65;4.68;;;7.30;99.90;;;;;;5116631;28;20023;-63
2022/02/11 01:12:05;;;;;;;8.38;4.53;;;7.30;99.90;;;;;;5116529;28;20072;-63
2022/02/11 01:14:37;;;;;;;10.00;5.32;;;7.30;99.90;;;;;;5116657;28;20087;-63
2022/02/11 01:17:27;;;;;;;10.65;5.18;;;7.20;99.90;;;;;;5116254;28;20024;-63
2022/02/11 01:20:12;;;;;;;11.27;5.40;;;7.30;99.90;;;;;;5116442;28;20052;-65
2022/02/11 01:33:49;;;;;;;8.63;5.13;;;7.20;99.90;;;;;;5116145;28;20035;-64
2022/02/11 02:00:29;;;;;;;12.10;5.67;;;6.70;99.90;;;;;;5115422;28;20027;-63
2022/02/11 02:03:32;;;;;;;12.47;6.00;;;6.70;99.90;;;;;;5114942;28;20110;-63
2022/02/11 02:12:05;;;;;;;13.80;7.10;;;6.40;99.90;;;;;;5013079;28;20022;-63
2022/02/11 02:57:16;;;;;;;11.85;5.60;;;5.90;99.90;;;;;;5114072;28;20176;-64
2022/02/11 03:34:55;;;;;;;1.23;0.90;;;5.40;99.90;;;;;;5126367;28;20053;-65
2022/02/11 03:48:57;;;;;;;2.67;1.42;;;5.40;99.90;;;;;;5114404;28;20034;-67
2022/02/11 04:08:16;;;;;;;3.53;1.52;;;5.30;99.90;;;;;;5113664;28;20111;-67
2022/02/11 04:56:02;;;;;;;4.23;1.30;;;5.40;99.90;;;;;;5117404;27;20378;-66
2022/02/11 05:01:13;;;;;;;4.32;1.42;;;5.30;99.90;;;;;;5117813;28;20077;-65
2022/02/11 05:03:39;;;;;;;2.53;1.07;;;5.20;99.90;;;;;;5116852;28;20430;-65
2022/02/11 05:06:04;;;;;;;4.57;1.20;;;5.20;99.90;;;;;;5116953;28;20019;-66
2022/02/11 05:08:30;;;;;;;2.67;1.20;;;5.10;99.90;;;;;;5115659;28;20031;-65
2022/02/11 05:10:57;;;;;;;2.80;1.40;;;5.10;99.90;;;;;;5115418;28;20016;-66
2022/02/11 05:13:23;;;;;;;1.90;1.30;;;5.00;99.90;;;;;;5115247;28;20479;-65
2022/02/11 05:15:50;;;;;;;2.75;1.75;;;4.90;99.90;;;;;;5116536;28;20024;-64
2022/02/11 05:18:17;;;;;;;4.30;1.92;;;4.90;99.90;;;;;;5114992;28;20027;-64
2022/02/11 05:20:43;;;;;;;2.30;1.33;;;4.90;99.90;;;;;;5115021;28;20035;-64
2022/02/11 05:23:13;;;;;;;2.47;1.30;;;5.00;99.90;;;;;;5116197;28;20039;-64
2022/02/11 05:25:41;;;;;;;2.45;1.40;;;5.10;99.90;;;;;;5116307;28;20110;-64
2022/02/11 05:28:09;;;;;;;3.13;1.35;;;5.10;99.90;;;;;;5116312;28;20038;-63
2022/02/11 05:30:36;;;;;;;3.28;1.30;;;5.00;99.90;;;;;;5116493;28;20145;-63
2022/02/11 05:33:03;;;;;;;1.88;1.25;;;4.90;99.90;;;;;;5116692;28;20020;-64
2022/02/11 05:35:29;;;;;;;1.73;1.25;;;4.80;99.90;;;;;;5115734;28;20076;-62
2022/02/11 05:37:54;;;;;;;2.00;1.10;;;4.70;99.90;;;;;;5114450;28;20027;-64
2022/02/11 05:40:20;;;;;;;3.13;1.40;;;4.70;99.90;;;;;;5114577;28;20749;-64
2022/02/11 05:42:46;;;;;;;3.27;1.30;;;4.60;99.90;;;;;;5116024;28;20020;-64
2022/02/11 05:45:11;;;;;;;2.10;1.33;;;4.50;99.90;;;;;;5115794;28;20042;-65
2022/02/11 05:47:37;;;;;;;2.00;1.33;;;4.50;99.90;;;;;;5115793;28;20024;-64
2022/02/11 05:50:04;;;;;;;3.07;1.23;;;4.40;99.90;;;;;;5115740;27;20261;-64
2022/02/11 05:52:30;;;;;;;;;;;4.40;99.90;;;;;;5115890;27;20106;-64
2022/02/11 05:54:55;;;;;;;2.80;1.50;;;4.40;99.90;;;;;;5115479;28;19903;-64
2022/02/11 05:57:21;;;;;;;3.87;1.80;;;4.30;99.90;;;;;;5115269;28;20031;-65
2022/02/11 05:59:47;;;;;;;3.20;1.40;;;4.30;99.90;;;;;;5113131;28;20024;-64
2022/02/11 06:02:12;;;;;;;2.10;1.37;;;4.30;99.90;;;;;;5115608;28;20046;-65
2022/02/11 06:04:38;;;;;;;2.17;1.57;;;4.30;99.90;;;;;;5114065;28;20024;-64
2022/02/11 06:07:04;;;;;;;3.63;1.27;;;4.20;99.90;;;;;;5115287;28;20046;-68
2022/02/11 06:09:29;;;;;;;2.83;1.70;;;4.20;99.90;;;;;;5115370;28;20421;-68
2022/02/11 06:11:55;;;;;;;3.33;2.00;;;4.20;99.90;;;;;;5113989;28;20089;-64
2022/02/11 06:14:21;;;;;;;2.40;1.63;;;4.20;99.90;;;;;;5113853;28;20031;-64
2022/02/11 06:16:46;;;;;;;2.37;1.87;;;4.10;99.90;;;;;;5113813;28;20396;-63
2022/02/11 06:19:12;;;;;;;6.97;2.57;;;4.10;99.90;;;;;;5120890;28;20077;-65
2022/02/11 06:21:37;;;;;;;2.63;1.60;;;4.10;99.90;;;;;;5117564;28;20027;-64
2022/02/11 06:24:04;;;;;;;4.43;1.83;;;4.00;99.90;;;;;;5115793;28;20063;-64
2022/02/11 06:26:29;;;;;;;2.90;1.60;;;4.00;99.90;;;;;;5114023;28;20066;-64
2022/02/11 06:28:56;;;;;;;3.15;1.90;;;4.00;99.90;;;;;;5114280;28;20041;-65
2022/02/11 06:31:22;;;;;;;4.38;1.85;;;4.00;99.90;;;;;;5113287;28;20117;-64
2022/02/11 06:33:49;;;;;;;2.95;1.80;;;4.10;99.90;;;;;;5114627;28;20035;-64
2022/02/11 06:36:14;;;;;;;2.65;1.50;;;4.30;99.90;;;;;;5113976;28;20558;-64
2022/02/11 06:38:40;;;;;;;2.30;1.47;;;4.30;99.90;;;;;;5113634;28;20102;-64
2022/02/11 06:41:06;;;;;;;3.67;2.30;;;4.20;99.90;;;;;;5114579;28;20023;-64
2022/02/11 06:43:32;;;;;;;4.15;1.73;;;4.10;99.90;;;;;;5113774;28;20093;-64
2022/02/11 06:45:59;;;;;;;4.37;2.10;;;4.10;99.90;;;;;;5114751;28;20023;-63
2022/02/11 06:48:25;;;;;;;3.80;2.05;;;4.00;99.90;;;;;;5114810;28;20749;-64
2022/02/11 06:50:54;;;;;;;4.20;2.10;;;4.00;99.90;;;;;;5114463;28;20035;-64
2022/02/11 06:53:20;;;;;;;5.00;2.35;;;4.00;99.90;;;;;;5114803;28;20016;-63
2022/02/11 06:55:46;;;;;;;5.40;2.63;;;4.00;99.90;;;;;;5114394;28;20039;-64
2022/02/11 06:58:12;;;;;;;6.30;2.33;;;4.00;99.90;;;;;;5113097;28;20101;-64
2022/02/11 07:00:45;;;;;;;7.38;2.42;;;4.00;99.90;;;;;;5114428;28;20035;-63
2022/02/11 07:03:12;;;;;;;6.63;2.60;;;4.00;99.90;;;;;;5114187;28;20333;-64
2022/02/11 07:05:39;;;;;;;5.05;2.28;;;3.90;99.90;;;;;;5112871;28;20085;-63
2022/02/11 07:08:06;;;;;;;5.82;2.40;;;3.90;99.90;;;;;;5114128;28;20036;-63
2022/02/11 07:10:32;;;;;;;5.07;2.30;;;3.90;99.90;;;;;;5114644;28;20059;-63
2022/02/11 07:12:59;;;;;;;4.30;2.35;;;3.80;99.90;;;;;;5114525;28;20484;-64
2022/02/11 07:15:25;;;;;;;7.22;2.80;;;3.90;99.90;;;;;;5114355;28;20035;-65
2022/02/11 07:17:50;;;;;;;6.63;3.10;;;3.90;99.90;;;;;;5113977;28;20035;-64
2022/02/11 07:20:16;;;;;;;5.80;2.60;;;4.00;99.90;;;;;;5113680;28;20066;-63
2022/02/11 07:22:42;;;;;;;6.90;3.10;;;4.00;99.90;;;;;;5112599;28;20024;-62
2022/02/11 07:25:11;;;;;;;5.30;2.85;;;4.10;99.90;;;;;;5112413;28;20020;-64
2022/02/11 07:27:37;;;;;;;8.70;2.78;;;4.10;99.90;;;;;;5113677;28;20511;-64
2022/02/11 07:30:07;;;;;;;4.90;2.80;;;4.10;99.90;;;;;;5112911;28;20027;-64
2022/02/11 07:32:33;;;;;;;7.80;3.60;;;4.10;99.90;;;;;;5114472;28;20028;-64
2022/02/11 07:35:00;;;;;;;7.18;3.05;;;4.20;99.90;;;;;;5112912;28;20028;-64
2022/02/11 07:37:26;;;;;;;6.57;3.40;;;4.20;99.90;;;;;;5114304;28;20114;-64
2022/02/11 07:39:52;;;;;;;5.93;3.30;;;4.20;99.90;;;;;;5114201;28;20019;-64
2022/02/11 07:42:19;;;;;;;8.53;3.80;;;4.10;99.90;;;;;;5113990;28;20036;-70
2022/02/11 07:44:44;;;;;;;6.15;2.95;;;4.20;99.90;;;;;;5113874;28;20322;-63
2022/02/11 07:47:10;;;;;;;8.17;3.20;;;4.20;99.90;;;;;;5113523;28;20024;-63
2022/02/11 07:49:37;;;;;;;5.27;3.03;;;4.20;99.90;;;;;;5114143;28;20039;-64
2022/02/11 07:52:04;;;;;;;5.47;2.85;;;4.20;99.90;;;;;;5113984;28;20073;-64
2022/02/11 07:54:30;;;;;;;6.53;3.20;;;4.20;99.90;;;;;;5114666;28;20031;-65
2022/02/11 07:56:57;;;;;;;6.28;2.97;;;4.20;99.90;;;;;;5115502;28;20040;-65
2022/02/11 07:59:22;;;;;;;7.38;3.00;;;4.10;99.90;;;;;;5119922;28;20130;-64
2022/02/11 08:01:48;;;;;;;8.60;3.40;;;3.90;99.90;;;;;;5115968;28;20123;-64
2022/02/11 08:04:14;;;;;;;7.23;2.97;;;3.90;99.90;;;;;;5113030;28;20016;-64
2022/02/11 08:06:39;;;;;;;7.90;3.17;;;3.90;99.90;;;;;;5112372;28;20039;-64
2022/02/11 08:09:05;;;;;;;10.90;3.10;;;3.90;99.90;;;;;;5112323;28;20031;-64
2022/02/11 08:11:31;;;;;;;10.88;3.63;;;4.00;99.90;;;;;;5112186;28;20392;-68
2022/02/11 08:13:56;;;;;;;6.80;2.90;;;3.90;99.90;;;;;;5113827;28;20027;-64
2022/02/11 08:16:22;;;;;;;6.80;3.10;;;4.00;99.90;;;;;;5115481;28;20285;-64
2022/02/11 08:18:48;;;;;;;7.07;3.20;;;4.00;99.90;;;;;;5118999;28;20034;-63
2022/02/11 08:21:14;;;;;;;5.63;2.90;;;4.00;99.90;;;;;;5118204;28;20502;-63
2022/02/11 08:23:40;;;;;;;;;;;4.10;99.90;;;;;;5119650;28;20031;-63
2022/02/11 08:26:06;;;;;;;8.00;3.05;;;4.10;99.90;;;;;;5117379;28;19998;-61
2022/02/11 08:28:31;;;;;;;7.10;3.77;;;4.10;99.90;;;;;;5117415;28;20099;-63
2022/02/11 08:30:58;;;;;;;6.90;3.28;;;4.20;99.90;;;;;;5117594;28;20031;-63
2022/02/11 08:33:24;;;;;;;;;;;4.10;99.90;;;;;;5117706;28;20548;-69
2022/02/11 08:35:54;;;;;;;9.30;3.70;;;4.20;99.90;;;;;;5116027;28;19904;-69
2022/02/11 08:38:21;;;;;;;10.43;5.40;;;4.20;99.90;;;;;;5116066;28;20023;-66
2022/02/11 08:40:47;;;;;;;11.18;5.15;;;4.20;99.90;;;;;;5116090;28;20383;-67
2022/02/11 08:43:13;;;;;;;12.77;5.75;;;4.20;99.90;;;;;;5117571;28;20027;-65
2022/02/11 08:45:40;;;;;;;8.30;4.22;;;4.20;99.90;;;;;;5118604;28;20019;-66
2022/02/11 08:48:08;;;;;;;13.18;5.20;;;4.20;99.90;;;;;;5116990;28;20068;-66
2022/02/11 08:50:34;;;;;;;10.95;5.30;;;4.20;99.90;;;;;;5117283;28;20019;-66
2022/02/11 08:53:00;;;;;;;14.00;5.53;;;4.30;99.90;;;;;;5117445;28;20028;-65
2022/02/11 08:55:25;;;;;;;13.10;5.60;;;4.40;99.90;;;;;;5117633;28;20476;-63
2022/02/11 08:57:53;;;;;;;13.40;5.07;;;4.50;99.90;;;;;;5120582;28;20027;-66
2022/02/11 09:00:21;;;;;;;11.38;4.72;;;4.60;99.90;;;;;;5118903;28;20016;-64
2022/02/11 09:02:46;;;;;;;10.90;6.65;;;4.80;99.90;;;;;;5117426;28;20103;-64
2022/02/11 09:05:12;;;;;;;8.40;5.00;;;4.90;99.90;;;;;;5117023;28;20055;-66
2022/02/11 09:07:38;;;;;;;13.00;4.83;;;4.90;99.90;;;;;;5137786;22;20126;-58
2022/02/11 09:10:07;;;;;;;8.93;5.37;;;5.00;99.90;;;;;;5099134;28;20098;-61
2022/02/11 09:12:33;;;;;;;11.77;6.03;;;5.00;99.90;;;;;;5116822;28;20613;-59
2022/02/11 09:14:59;;;;;;;8.85;5.32;;;5.00;99.90;;;;;;5116982;28;20021;-59
2022/02/11 09:17:25;;;;;;;15.98;6.80;;;4.90;99.90;;;;;;5116586;28;20112;-61
2022/02/11 09:19:52;;;;;;;13.82;6.07;;;4.80;99.90;;;;;;5118667;28;20404;-61
2022/02/11 09:22:18;;;;;;;11.60;5.40;;;4.80;99.90;;;;;;5119710;28;20020;-60
2022/02/11 09:24:44;;;;;;;16.38;5.30;;;4.90;99.90;;;;;;5119158;28;20080;-59
2022/02/11 09:27:10;;;;;;;8.60;5.10;;;4.80;99.90;;;;;;5119341;28;20065;-58
2022/02/11 09:29:36;;;;;;;11.93;5.00;;;4.90;99.90;;;;;;5119172;28;20468;-62
2022/02/11 09:32:01;;;;;;;14.33;5.57;;;5.00;99.90;;;;;;5118004;28;20031;-60
2022/02/11 09:34:27;;;;;;;12.63;5.17;;;5.10;99.90;;;;;;5100050;28;20085;-59
2022/02/11 09:36:53;;;;;;;12.97;5.47;;;5.30;99.90;;;;;;5118955;28;20280;-58
2022/02/11 09:39:18;;;;;;;8.93;4.83;;;5.50;99.90;;;;;;5118817;28;20024;-60
2022/02/11 09:41:45;;;;;;;14.75;5.82;;;5.60;99.90;;;;;;5118346;28;20030;-61
2022/02/11 09:44:13;;;;;;;13.00;4.82;;;5.70;99.90;;;;;;5116258;28;20033;-61
2022/02/11 09:46:39;;;;;;;10.27;4.50;;;6.10;99.90;;;;;;5115729;28;20425;-60
2022/02/11 09:49:06;;;;;;;9.35;4.25;;;7.00;99.90;;;;;;5116221;28;20031;-60
2022/02/11 09:51:33;;;;;;;9.57;3.88;;;7.70;99.90;;;;;;5115973;28;20042;-60
2022/02/11 09:53:58;;;;;;;8.82;4.13;;;8.30;99.90;;;;;;5115840;28;20080;-61
2022/02/11 09:56:25;;;;;;;8.53;3.80;;;8.80;99.90;;;;;;5115861;28;20526;-59
2022/02/11 09:58:52;;;;;;;10.02;4.13;;;9.20;99.90;;;;;;5115591;28;20253;-61
2022/02/11 10:01:21;;;;;;;11.75;4.90;;;9.60;99.90;;;;;;5115342;28;20472;-59
2022/02/11 10:04:10;;;;;;;12.60;4.70;;;9.30;99.90;;;;;;5115766;28;20023;-59
2022/02/11 10:06:36;;;;;;;11.50;4.00;;;8.70;99.90;;;;;;5115685;28;20084;-60
2022/02/11 10:09:04;;;;;;;9.48;4.20;;;8.20;99.90;;;;;;5115395;28;20027;-61
2022/02/11 10:11:30;;;;;;;9.13;4.07;;;7.70;99.90;;;;;;5115131;28;20055;-61
2022/02/11 10:13:56;;;;;;;11.10;5.05;;;7.30;99.90;;;;;;5115355;28;20016;-60
2022/02/11 10:16:25;;;;;;;9.37;4.07;;;7.10;99.90;;;;;;5096421;28;20057;-63
2022/02/11 10:18:53;;;;;;;8.68;4.53;;;6.90;99.90;;;;;;5096741;28;20365;-58
2022/02/11 10:21:31;;;;;;;12.18;4.18;;;6.70;99.90;;;;;;5115225;28;20016;-60
2022/02/11 10:23:57;;;;;;;8.00;4.10;;;6.50;99.90;;;;;;5096446;28;20027;-61
2022/02/11 10:26:24;;;;;;;8.27;4.37;;;6.40;99.90;;;;;;5096377;28;20023;-59
2022/02/11 10:28:55;;;;;;;9.98;4.63;;;6.20;99.90;;;;;;5114592;28;20078;-62
2022/02/11 10:31:30;;;;;;;12.65;5.00;;;6.20;99.90;;;;;;5114918;28;20015;-61
2022/02/11 10:34:03;;;;;;;8.45;4.50;;;6.10;99.90;;;;;;5114599;28;20420;-61
2022/02/11 10:36:48;;;;;;;9.98;4.65;;;6.00;99.90;;;;;;5096082;28;20024;-60
2022/02/11 10:39:25;;;;;;;8.55;3.90;;;6.00;99.90;;;;;;5096594;28;20376;-60
2022/02/11 10:41:53;;;;;;;;;;;6.00;99.90;;;;;;5114884;28;20024;-60
2022/02/11 10:44:22;;;;;;;9.88;4.32;;;5.90;99.90;;;;;;5115169;28;19911;-62
2022/02/11 10:46:50;;;;;;;12.60;4.20;;;6.00;99.90;;;;;;5113870;28;20044;-59
2022/02/11 10:49:17;;;;;;;10.88;4.55;;;6.00;99.90;;;;;;5114344;28;20023;-61
2022/02/11 10:51:46;;;;;;;9.63;4.20;;;6.00;99.90;;;;;;5114695;28;20023;-61
2022/02/11 10:54:25;;;;;;;10.18;4.43;;;6.10;99.90;;;;;;5114528;28;20023;-61
2022/02/11 10:56:59;;;;;;;10.77;4.93;;;6.10;99.90;;;;;;5114146;28;20027;-60
2022/02/11 10:59:35;;;;;;;10.75;4.07;;;6.20;99.90;;;;;;5114337;28;20024;-61
2022/02/11 11:02:07;;;;;;;11.38;4.07;;;6.30;99.90;;;;;;5114347;28;20023;-60
2022/02/11 11:04:33;;;;;;;11.77;4.72;;;7.20;99.90;;;;;;5114437;28;20372;-59
2022/02/11 11:06:59;;;;;;;8.07;3.80;;;7.40;99.90;;;;;;5114996;28;20036;-60
2022/02/11 11:09:28;;;;;;;11.73;4.35;;;7.30;99.90;;;;;;5114984;28;20039;-66
2022/02/11 11:11:57;;;;;;;8.52;3.90;;;7.10;99.90;;;;;;5115225;28;20031;-57
2022/02/11 11:14:24;;;;;;;11.02;4.13;;;6.90;99.90;;;;;;5114122;28;20020;-60
2022/02/11 11:16:52;;;;;;;13.80;4.22;;;6.60;99.90;;;;;;5096192;28;20059;-67
2022/02/11 11:19:22;;;;;;;11.75;3.88;;;6.50;99.90;;;;;;5115053;28;20084;-68
2022/02/11 11:22:10;;;;;;;9.77;4.22;;;6.50;99.90;;;;;;5115599;28;20468;-68
2022/02/11 11:24:44;;;;;;;9.90;4.60;;;6.40;99.90;;;;;;5114856;28;20114;-61
2022/02/11 11:27:09;;;;;;;9.77;4.32;;;6.30;99.90;;;;;;5096514;28;20031;-63
2022/02/11 11:29:35;;;;;;;9.00;3.50;;;6.20;99.90;;;;;;5115112;28;20098;-61
2022/02/11 11:32:03;;;;;;;10.77;5.20;;;6.20;99.90;;;;;;5115858;28;20028;-67
2022/02/11 11:34:35;;;;;;;6.30;3.40;;;6.20;99.90;;;;;;5097717;28;20030;-67
2022/02/11 11:37:09;;;;;;;10.63;3.40;;;6.10;99.90;;;;;;5115285;28;20047;-62
2022/02/11 11:39:35;;;;;;;7.93;2.83;;;6.10;99.90;;;;;;5114177;28;20407;-62
2022/02/11 11:42:07;;;;;;;8.95;3.45;;;6.00;99.90;;;;;;5114123;28;20379;-61
2022/02/11 11:44:53;;;;;;;8.98;3.47;;;6.00;99.90;;;;;;5113916;28;20051;-62
2022/02/11 11:47:32;;;;;;;8.68;3.45;;;6.00;99.90;;;;;;5115284;28;20401;-67
2022/02/11 11:49:58;;;;;;;9.40;3.30;;;6.10;99.90;;;;;;5114754;28;20037;-67
2022/02/11 11:52:39;;;;;;;9.15;3.55;;;6.00;99.90;;;;;;5114102;28;20042;-62
2022/02/11 11:55:22;;;;;;;10.40;3.85;;;6.00;99.90;;;;;;5095519;28;20024;-62
2022/02/11 11:57:49;;;;;;;6.85;3.10;;;6.00;99.90;;;;;;5114041;28;20043;-62
2022/02/11 12:00:36;;;;;;;8.00;4.22;;;5.90;99.90;;;;;;5099263;28;20109;-60
2022/02/11 12:03:02;;;;;;;9.73;3.65;;;6.00;99.90;;;;;;5119232;28;20019;-61
2022/02/11 12:05:45;;;;;;;9.82;3.95;;;6.00;99.90;;;;;;5118847;28;20047;-63
2022/02/11 12:08:10;;;;;;;8.85;4.38;;;6.10;99.90;;;;;;5118366;28;20051;-61
2022/02/11 12:10:36;;;;;;;7.18;3.35;;;6.20;99.90;;;;;;5118033;28;20387;-60
2022/02/11 12:13:02;;;;;;;8.40;3.40;;;6.30;99.90;;;;;;5117845;28;20028;-62
2022/02/11 12:15:27;;;;;;;14.53;4.10;;;6.30;99.90;;;;;;5118013;28;20031;-61
2022/02/11 12:17:54;;;;;;;9.02;4.28;;;6.20;99.90;;;;;;5117678;28;20034;-62
2022/02/11 12:20:20;;;;;;;7.28;3.80;;;6.20;99.90;;;;;;5099206;28;20024;-61
2022/02/11 12:27:20;;;;;;;8.20;3.67;;;6.20;99.90;;;;;;5099550;28;20432;-62
2022/02/11 12:28:20;;;;;;;11.93;3.90;;;6.40;99.90;;;;;;5118112;28;20035;-60
2022/02/11 12:30:47;;;;;;;7.78;3.90;;;6.60;99.90;;;;;;5117948;28;20012;-61
2022/02/11 12:33:13;;;;;;;10.45;3.65;;;6.70;99.90;;;;;;5118232;28;20153;-61
2022/02/11 12:35:40;;;;;;;9.47;3.17;;;6.80;99.90;;;;;;5118315;28;20047;-57
2022/02/11 12:38:06;;;;;;;5.85;3.15;;;6.80;99.90;;;;;;5118208;28;20281;-61
2022/02/11 12:40:32;;;;;;;;;;;6.80;99.90;;;;;;5118963;28;20073;-61
2022/02/11 12:43:00;;;;;;;10.18;3.83;;;6.80;99.90;;;;;;5118890;28;19907;-60
2022/02/11 12:45:33;;;;;;;9.70;3.90;;;6.90;99.90;;;;;;5100653;28;20020;-61
2022/02/11 12:48:00;;;;;;;10.18;3.58;;;6.80;99.90;;;;;;5120115;28;20023;-62
2022/02/11 12:50:34;;;;;;;7.15;3.38;;;6.90;99.90;;;;;;5119596;28;20099;-60
2022/02/11 12:53:03;;;;;;;9.40;3.10;;;6.90;99.90;;;;;;5119262;28;20027;-60
2022/02/11 12:55:30;;;;;;;9.32;3.28;;;7.00;99.90;;;;;;5119409;28;20020;-61
2022/02/11 12:57:58;;;;;;;9.23;3.63;;;7.10;99.90;;;;;;5118043;28;20023;-60
2022/02/11 13:00:28;;;;;;;8.70;3.53;;;7.10;99.90;;;;;;5117396;28;20023;-59
2022/02/11 13:02:58;;;;;;;13.43;3.47;;;7.20;99.90;;;;;;5117195;28;20121;-59
2022/02/11 13:05:26;;;;;;;5.88;2.78;;;7.10;99.90;;;;;;5119107;28;20016;-62
2022/02/11 13:07:57;;;;;;;9.75;3.92;;;7.10;99.90;;;;;;5119834;28;20036;-60
2022/02/11 13:10:31;;;;;;;10.88;3.35;;;7.10;99.90;;;;;;5120861;28;20020;-65
2022/02/11 13:12:59;;;;;;;11.00;3.13;;;7.20;99.90;;;;;;5121851;28;20152;-62
2022/02/11 13:15:29;;;;;;;7.57;2.92;;;7.30;99.90;;;;;;5123526;28;20066;-61
2022/02/11 13:18:10;;;;;;;11.43;3.22;;;7.40;99.90;;;;;;5123630;28;20020;-62
2022/02/11 13:21:09;;;;;;;10.98;2.63;;;7.50;99.90;;;;;;5101500;28;20027;-61
2022/02/11 13:23:35;;;;;;;10.60;3.70;;;7.50;99.90;;;;;;5117649;28;20039;-60
2022/02/11 13:26:07;;;;;;;8.37;2.50;;;7.40;99.90;;;;;;5117804;28;20023;-61
2022/02/11 13:28:46;;;;;;;7.35;2.30;;;7.30;99.90;;;;;;5116327;28;20024;-60
2022/02/11 13:31:13;;;;;;;5.80;2.25;;;7.30;99.90;;;;;;5116255;28;20038;-60
2022/02/11 13:33:38;;;;;;;8.48;2.17;;;7.20;99.90;;;;;;5116068;28;20072;-60
2022/02/11 13:36:10;;;;;;;8.52;2.60;;;7.00;99.90;;;;;;5116109;28;20035;-61
2022/02/11 13:38:40;;;;;;;5.43;2.30;;;7.00;99.90;;;;;;5116786;28;20023;-61
2022/02/11 13:41:11;;;;;;;6.53;2.13;;;6.80;99.90;;;;;;5097734;28;20027;-62
2022/02/11 13:43:57;;;;;;;10.60;2.35;;;6.80;99.90;;;;;;5116478;28;20043;-59
2022/02/11 13:46:27;;;;;;;6.47;2.50;;;6.90;99.90;;;;;;5116104;28;20027;-62
2022/02/11 13:48:55;;;;;;;5.75;2.38;;;7.20;99.90;;;;;;5115515;28;20019;-60
2022/02/11 13:51:21;;;;;;;5.70;2.25;;;7.40;99.90;;;;;;5115512;28;20458;-61
2022/02/11 13:53:52;;;;;;;7.07;2.40;;;7.40;99.90;;;;;;5115411;28;20153;-61
2022/02/11 13:56:22;;;;;;;7.28;2.72;;;7.50;99.90;;;;;;5115893;28;20027;-60
2022/02/11 13:59:27;;;;;;;6.43;2.40;;;7.50;99.90;;;;;;5115880;28;20019;-60
2022/02/11 14:02:03;;;;;;;4.15;2.30;;;7.50;99.90;;;;;;5074617;28;20024;-58
2022/02/11 14:04:32;;;;;;;7.05;2.63;;;7.40;99.90;;;;;;5115950;28;20421;-60
2022/02/11 14:06:59;;;;;;;7.88;2.97;;;7.30;99.90;;;;;;5115434;28;20035;-60
2022/02/11 14:09:35;;;;;;;17.50;2.88;;;7.20;99.90;;;;;;5115361;28;20024;-61
2022/02/11 14:12:06;;;;;;;8.00;2.22;;;7.20;99.90;;;;;;5115532;28;20023;-61
2022/02/11 14:14:33;;;;;;;12.00;2.58;;;7.20;99.90;;;;;;5115143;28;20031;-61
2022/02/11 14:17:00;;;;;;;8.02;2.40;;;7.20;99.90;;;;;;5116122;28;20027;-61
2022/02/11 14:19:26;;;;;;;;;;;7.30;99.90;;;;;;5116783;28;20047;-60
2022/02/11 14:21:53;;;;;;;12.18;2.97;;;7.30;99.90;;;;;;5115669;28;19949;-59
2022/02/11 14:24:20;;;;;;;;;;;7.30;99.90;;;;;;5115681;28;20023;-60
2022/02/11 14:26:46;;;;;;;10.63;4.10;;;7.20;99.90;;;;;;5096143;28;20411;-60
2022/02/11 14:29:12;;;;;;;10.30;3.38;;;7.20;99.90;;;;;;5115287;28;20114;-66
2022/02/11 14:31:39;;;;;;;12.77;2.67;;;7.20;99.90;;;;;;5115839;28;20058;-64
2022/02/11 14:34:06;;;;;;;8.55;2.67;;;7.20;99.90;;;;;;5115518;28;20510;-62
2022/02/11 14:36:32;;;;;;;7.65;2.20;;;7.10;99.90;;;;;;5097527;28;20020;-62
2022/02/11 14:38:58;;;;;;;5.30;2.25;;;7.20;99.90;;;;;;5115412;28;20118;-63
2022/02/11 14:44:08;;;;;;;6.90;2.60;;;7.20;99.90;;;;;;5116575;28;20046;-63
2022/02/11 14:46:35;;;;;;;7.20;2.27;;;7.30;99.90;;;;;;5116527;28;20015;-63
2022/02/11 14:49:00;;;;;;;5.85;2.40;;;7.30;99.90;;;;;;5115419;28;20026;-63
2022/02/11 14:51:26;;;;;;;4.53;1.92;;;7.40;99.90;;;;;;5116153;28;20106;-63
2022/02/11 14:53:52;;;;;;;6.67;2.20;;;7.40;99.90;;;;;;5116044;28;20020;-62
2022/02/11 14:56:18;;;;;;;7.37;2.43;;;7.40;99.90;;;;;;5097438;28;20261;-63
2022/02/11 14:58:43;;;;;;;6.83;2.17;;;7.30;99.90;;;;;;5116227;28;20459;-64
2022/02/11 15:01:10;;;;;;;5.87;2.63;;;7.40;99.90;;;;;;5116260;28;20257;-61
2022/02/11 15:03:36;;;;;;;9.43;2.88;;;7.40;99.90;;;;;;5115929;28;20446;-63
2022/02/11 15:06:02;;;;;;;10.02;2.60;;;7.30;99.90;;;;;;5116343;28;20063;-63
2022/02/11 15:08:27;;;;;;;12.83;3.03;;;7.30;99.90;;;;;;5119595;22;20384;-66
2022/02/11 15:10:54;;;;;;;11.48;3.17;;;7.30;99.90;;;;;;5094966;28;20097;-66
2022/02/11 15:13:20;;;;;;;8.13;2.80;;;7.30;99.90;;;;;;5094200;28;20464;-66
2022/02/11 15:15:45;;;;;;;6.00;2.20;;;7.30;99.90;;;;;;5094475;28;20254;-66
2022/02/11 15:18:11;;;;;;;8.50;3.40;;;7.40;99.90;;;;;;5075745;28;20111;-67
2022/02/11 15:20:43;;;;;;;10.00;2.95;;;7.40;99.90;;;;;;5093719;28;20020;-66
2022/02/11 15:23:10;;;;;;;6.53;2.10;;;7.40;99.90;;;;;;5093638;28;20016;-66
2022/02/11 15:25:36;;;;;;;9.18;2.10;;;7.30;99.90;;;;;;5093874;28;20520;-63
2022/02/11 15:28:02;;;;;;;11.10;2.63;;;7.40;99.90;;;;;;5093585;28;20067;-64
2022/02/11 15:30:29;;;;;;;11.18;2.30;;;7.40;99.90;;;;;;5075742;28;20027;-69
2022/02/11 15:32:55;;;;;;;6.25;2.00;;;7.40;99.90;;;;;;5075332;28;20024;-69
2022/02/11 15:35:24;;;;;;;11.40;2.03;;;7.40;99.90;;;;;;5094051;28;20489;-69
2022/02/11 15:37:55;;;;;;;6.03;1.83;;;7.40;99.90;;;;;;5075203;28;20040;-68
2022/02/11 15:40:22;;;;;;;11.88;2.97;;;7.40;99.90;;;;;;5075692;28;20088;-68
2022/02/11 15:42:48;;;;;;;10.65;3.60;;;7.30;99.90;;;;;;5076338;28;20368;-66
2022/02/11 15:45:13;;;;;;;6.57;2.23;;;7.30;99.90;;;;;;5093251;28;20050;-66
2022/02/11 15:47:39;;;;;;;8.33;2.60;;;7.30;99.90;;;;;;5093035;28;20032;-66
2022/02/11 15:50:05;;;;;;;10.60;2.83;;;7.30;99.90;;;;;;5074270;28;20031;-66
2022/02/11 15:52:31;;;;;;;8.27;2.20;;;7.30;99.90;;;;;;5092527;28;20338;-68
2022/02/11 15:54:56;;;;;;;6.77;2.03;;;7.30;99.90;;;;;;5074460;28;20480;-67
2022/02/11 15:57:22;;;;;;;4.23;1.50;;;7.20;99.90;;;;;;5074710;28;20383;-68
2022/02/11 15:59:48;;;;;;;12.27;2.20;;;7.20;99.90;;;;;;5074473;28;20024;-69
2022/02/11 16:02:13;;;;;;;8.83;2.13;;;7.20;99.90;;;;;;5092640;28;20384;-69
2022/02/11 16:04:39;;;;;;;9.77;2.13;;;7.20;99.90;;;;;;5091691;28;20417;-69
2022/02/11 16:07:05;;;;;;;7.85;2.30;;;7.10;99.90;;;;;;5091505;28;20091;-69
2022/02/11 16:09:30;;;;;;;8.55;2.00;;;7.10;99.90;;;;;;5093075;28;20085;-64
2022/02/11 16:11:57;;;;;;;12.90;2.43;;;7.00;99.90;;;;;;5093161;28;20038;-68
2022/02/11 16:14:24;;;;;;;8.38;1.95;;;7.00;99.90;;;;;;5074573;28;20392;-69
2022/02/11 16:16:49;;;;;;;;;;;6.90;99.90;;;;;;5094511;28;20522;-68
2022/02/11 16:19:15;;;;;;;11.75;3.83;;;6.90;99.90;;;;;;5077256;28;19904;-67
2022/02/11 16:21:41;;;;;;;9.93;2.37;;;6.80;99.90;;;;;;5075169;28;20021;-68
2022/02/11 16:24:07;;;;;;;11.60;2.70;;;6.70;99.90;;;;;;5075549;28;20479;-71
2022/02/11 16:26:33;;;;;;;7.03;1.92;;;6.60;99.90;;;;;;5074912;28;20456;-63
2022/02/11 16:28:59;;;;;;;3.67;1.77;;;6.60;99.90;;;;;;5092999;28;20541;-64
2022/02/11 16:31:25;;;;;;;11.17;2.63;;;6.50;99.90;;;;;;5092699;28;20028;-65
2022/02/11 16:33:53;;;;;;;6.88;2.47;;;6.40;99.90;;;;;;5093176;28;20269;-67
2022/02/11 16:36:20;;;;;;;9.15;2.58;;;6.40;99.90;;;;;;5092773;28;20025;-68
2022/02/11 16:38:47;;;;;;;7.30;2.65;;;6.30;99.90;;;;;;5093128;28;20100;-68
2022/02/11 16:41:13;;;;;;;10.05;2.95;;;6.30;99.90;;;;;;5092407;28;20020;-69
2022/02/11 16:43:40;;;;;;;9.52;3.67;;;6.20;99.90;;;;;;5075333;28;20020;-69
2022/02/11 16:46:07;;;;;;;9.07;2.58;;;6.30;99.90;;;;;;5078726;28;20035;-67
2022/02/11 16:48:33;;;;;;;11.05;2.83;;;6.30;99.90;;;;;;5096750;28;20484;-65
2022/02/11 16:50:59;;;;;;;7.77;3.17;;;6.40;99.90;;;;;;5096302;28;20081;-66
2022/02/11 16:53:25;;;;;;;10.48;3.40;;;6.40;99.90;;;;;;5096422;28;20706;-68